createdAt,value
2022-12-25T00:00:00.152Z,1000.65
2022-12-25T00:05:00.117Z,1000.75
2022-12-25T00:10:00.113Z,1000.74
2022-12-25T00:15:00.131Z,1000.59
2022-12-25T00:20:00.126Z,1000.8
2022-12-25T00:25:00.148Z,1000.75
2022-12-25T00:30:00.123Z,1000.6
2022-12-25T00:35:00.180Z,1000.64
2022-12-25T00:40:00.142Z,1000.6
2022-12-25T00:45:00.134Z,1000.55
2022-12-25T00:50:00.112Z,1000.58
2022-12-25T00:55:00.125Z,1000.73
2022-12-25T01:00:00.161Z,1000.62
2022-12-25T01:05:00.179Z,1000.51
2022-12-25T01:10:00.159Z,1000.62
2022-12-25T01:15:00.205Z,1000.77
2022-12-25T01:20:00.114Z,1000.82
2022-12-25T01:25:00.153Z,1000.96
2022-12-25T01:30:00.153Z,1001.09
2022-12-25T01:35:00.118Z,1001.22
2022-12-25T01:40:00.170Z,1001.02
2022-12-25T01:45:00.111Z,1001.08
2022-12-25T01:50:00.184Z,1001.06
2022-12-25T01:55:00.160Z,1001.14
2022-12-25T02:00:00.128Z,1001.25
2022-12-25T02:05:00.136Z,1001.18
2022-12-25T02:10:00.145Z,1001.16
2022-12-25T02:15:05.195Z,1001.18
2022-12-25T02:20:00.149Z,1001.17
2022-12-25T02:25:00.134Z,1001.17
2022-12-25T02:30:00.181Z,1001.13
2022-12-25T02:35:00.127Z,1001.05
2022-12-25T02:40:00.161Z,1001.08
2022-12-25T02:45:00.153Z,1001.1
2022-12-25T02:50:00.174Z,1001.08
2022-12-25T02:55:00.159Z,1000.89
2022-12-25T03:00:00.132Z,1000.99
2022-12-25T03:05:00.130Z,1001.09
2022-12-25T03:10:00.125Z,1001.16
2022-12-25T03:15:00.178Z,1001.18
2022-12-25T03:20:00.130Z,1001.21
2022-12-25T03:25:00.120Z,1001.12
2022-12-25T03:30:00.168Z,1001.11
2022-12-25T03:35:00.149Z,1001.16
2022-12-25T03:40:00.137Z,1001.19
2022-12-25T03:45:00.140Z,1001.33
2022-12-25T03:50:00.156Z,1001.29
2022-12-25T03:55:00.186Z,1001.34
2022-12-25T04:00:00.180Z,1001.37
2022-12-25T04:05:00.147Z,1001.34
2022-12-25T04:10:00.135Z,1001.36
2022-12-25T04:15:00.123Z,1001.27
2022-12-25T04:20:00.131Z,1001.25
2022-12-25T04:25:00.197Z,1001.34
2022-12-25T04:30:00.140Z,1000.63
2022-12-25T04:35:00.125Z,1000.73
2022-12-25T04:40:00.121Z,1000.68
2022-12-25T04:45:00.125Z,1000.99
2022-12-25T04:50:00.135Z,1001.02
2022-12-25T04:55:00.151Z,1000.96
2022-12-25T05:00:00.168Z,1000.83
2022-12-25T05:05:00.153Z,1000.83
2022-12-25T05:10:00.186Z,1000.7
2022-12-25T05:15:00.210Z,1000.74
2022-12-25T05:20:00.134Z,1000.69
2022-12-25T05:25:00.098Z,1000.65
2022-12-25T05:30:00.174Z,1000.6
2022-12-25T05:35:00.174Z,1000.52
2022-12-25T05:40:00.135Z,1000.4
2022-12-25T05:45:00.106Z,1000.34
2022-12-25T05:50:00.113Z,1000.39
2022-12-25T05:55:00.134Z,1000.64
2022-12-25T06:00:00.147Z,1000.44
2022-12-25T06:05:00.144Z,1000.28
2022-12-25T06:10:00.124Z,1000.22
2022-12-25T06:15:00.170Z,1000.23
2022-12-25T06:20:00.134Z,1000.29
2022-12-25T06:25:00.134Z,1000.35
2022-12-25T06:30:00.162Z,1000.34
2022-12-25T06:35:00.188Z,1000.28
2022-12-25T06:40:00.099Z,1000.23
2022-12-25T06:45:00.154Z,1000.4
2022-12-25T06:50:00.176Z,1000.48
2022-12-25T06:55:00.118Z,1000.42
2022-12-25T07:00:00.247Z,1000.52
2022-12-25T07:05:00.124Z,1000.53
2022-12-25T07:10:00.113Z,1000.5
2022-12-25T07:15:00.123Z,1000.45
2022-12-25T07:20:00.135Z,1000.61
2022-12-25T07:25:00.109Z,1000.57
2022-12-25T07:30:00.133Z,1000.81
2022-12-25T07:35:00.144Z,1000.86
2022-12-25T07:40:00.155Z,1000.79
2022-12-25T07:45:00.138Z,1000.73
2022-12-25T07:50:00.122Z,1000.69
2022-12-25T07:55:00.148Z,1000.65
2022-12-25T08:00:00.225Z,1000.44
2022-12-25T08:05:00.178Z,1000.39
2022-12-25T08:10:00.117Z,1000.49
2022-12-25T08:15:00.171Z,1000.59
2022-12-25T08:20:00.130Z,1000.37
2022-12-25T08:25:00.105Z,1000.43
2022-12-25T08:30:00.159Z,1000.44
2022-12-25T08:35:00.145Z,1000.23
2022-12-25T08:40:00.126Z,1000.25
2022-12-25T08:45:00.127Z,1000.21
2022-12-25T08:50:00.120Z,1000.28
2022-12-25T08:55:00.155Z,1000.3
2022-12-25T09:00:00.197Z,1000.46
2022-12-25T09:05:00.136Z,1000.15
2022-12-25T09:10:00.152Z,1000.06
2022-12-25T09:15:00.130Z,1000.01
2022-12-25T09:20:00.115Z,1000.01
2022-12-25T09:25:00.144Z,1000.06
2022-12-25T09:30:00.135Z,1000
2022-12-25T09:35:00.121Z,1000.02
2022-12-25T09:40:00.151Z,999.87
2022-12-25T09:45:00.110Z,999.83
2022-12-25T09:50:00.138Z,999.89
2022-12-25T09:55:00.147Z,1000.01
2022-12-25T10:00:00.135Z,999.98
2022-12-25T10:05:00.123Z,999.81
2022-12-25T10:10:00.133Z,999.87
2022-12-25T10:15:00.156Z,999.84
2022-12-25T10:20:00.155Z,999.68
2022-12-25T10:25:00.133Z,999.72
2022-12-25T10:30:00.163Z,999.59
2022-12-25T10:35:00.125Z,999.49
2022-12-25T10:40:00.135Z,999.49
2022-12-25T10:45:00.129Z,999.38
2022-12-25T10:50:00.124Z,999.35
2022-12-25T10:55:00.127Z,999.29
2022-12-25T11:00:00.179Z,999.21
2022-12-25T11:05:00.136Z,999.12
2022-12-25T11:10:04.554Z,998.98
2022-12-25T11:15:00.132Z,998.9
2022-12-25T11:20:00.154Z,998.84
2022-12-25T11:25:00.147Z,998.74
2022-12-25T11:30:00.179Z,998.34
2022-12-25T11:35:00.152Z,998.33
2022-12-25T11:40:00.194Z,998.07
2022-12-25T11:45:00.129Z,997.95
2022-12-25T11:50:00.856Z,997.97
2022-12-25T11:55:00.141Z,997.92
2022-12-25T12:00:00.157Z,998.11
2022-12-25T12:05:00.120Z,998.13
2022-12-25T12:10:00.114Z,998.25
2022-12-25T12:15:00.173Z,998.07
2022-12-25T12:20:00.197Z,997.63
2022-12-25T12:25:00.155Z,997.41
2022-12-25T12:30:00.191Z,997.57
2022-12-25T12:35:00.146Z,997.68
2022-12-25T12:40:00.093Z,997.74
2022-12-25T12:45:00.115Z,997.87
2022-12-25T12:50:00.184Z,997.74
2022-12-25T12:55:00.175Z,997.77
2022-12-25T13:00:05.083Z,997.84
2022-12-25T13:05:00.111Z,997.78
2022-12-25T13:10:00.216Z,997.74
2022-12-25T13:15:00.200Z,997.8
2022-12-25T13:20:00.263Z,997.7
2022-12-25T13:25:00.145Z,997.68
2022-12-25T13:30:00.222Z,997.5
2022-12-25T13:35:00.148Z,997.57
2022-12-25T13:40:00.211Z,997.47
2022-12-25T13:45:00.106Z,997.46
2022-12-25T13:50:00.171Z,997.36
2022-12-25T13:55:00.157Z,997.37
2022-12-25T14:00:00.174Z,997.18
2022-12-25T14:05:00.158Z,997.22
2022-12-25T14:10:00.143Z,997.23
2022-12-25T14:15:00.136Z,997.31
2022-12-25T14:20:05.927Z,997.24
2022-12-25T14:25:00.126Z,997.15
2022-12-25T14:30:00.130Z,997.37
2022-12-25T14:35:00.136Z,997.41
2022-12-25T14:40:00.167Z,997.36
2022-12-25T14:45:00.136Z,997.2
2022-12-25T14:50:00.172Z,997.1
2022-12-25T14:55:00.142Z,997.05
2022-12-25T15:00:00.170Z,996.93
2022-12-25T15:05:00.212Z,996.81
2022-12-25T15:10:28.887Z,996.65
2022-12-25T15:15:00.191Z,996.55
2022-12-25T15:20:00.110Z,996.54
2022-12-25T15:25:02.386Z,996.58
2022-12-25T15:30:09.475Z,996.57
2022-12-25T15:35:00.135Z,996.37
2022-12-25T15:40:00.120Z,996.43
2022-12-25T15:45:00.170Z,996.29
2022-12-25T15:50:00.123Z,996.44
2022-12-25T15:55:00.151Z,996.43
2022-12-25T16:00:00.204Z,996.17
2022-12-25T16:05:02.090Z,996.06
2022-12-25T16:10:00.141Z,995.99
2022-12-25T16:15:00.125Z,995.81
2022-12-25T16:20:00.196Z,995.79
2022-12-25T16:25:00.138Z,995.75
2022-12-25T16:30:00.261Z,995.66
2022-12-25T16:35:00.130Z,995.5
2022-12-25T16:40:00.196Z,995.34
2022-12-25T16:45:00.120Z,995.41
2022-12-25T16:50:00.181Z,995.4
2022-12-25T16:55:00.133Z,995.39
2022-12-25T17:00:00.189Z,995.15
2022-12-25T17:05:00.120Z,995.13
2022-12-25T17:10:00.118Z,994.96
2022-12-25T17:15:00.159Z,994.95
2022-12-25T17:20:00.161Z,995.01
2022-12-25T17:25:00.139Z,994.95
2022-12-25T17:30:00.146Z,994.8
2022-12-25T17:35:00.135Z,994.73
2022-12-25T17:40:00.120Z,994.58
2022-12-25T17:45:00.114Z,994.71
2022-12-25T17:50:00.115Z,994.65
2022-12-25T17:55:00.152Z,994.6
2022-12-25T18:00:00.227Z,994.5
2022-12-25T18:05:00.115Z,994.34
2022-12-25T18:10:00.124Z,994.23
2022-12-25T18:15:00.172Z,994.15
2022-12-25T18:20:00.203Z,994.17
2022-12-25T18:25:00.125Z,994.2
2022-12-25T18:30:00.173Z,994.36
2022-12-25T18:35:00.143Z,994.37
2022-12-25T18:40:00.104Z,994.39
2022-12-25T18:45:00.147Z,994.39
2022-12-25T18:50:00.104Z,994.48
2022-12-25T18:55:00.133Z,994.23
2022-12-25T19:00:00.208Z,994.27
2022-12-25T19:05:00.136Z,994.24
2022-12-25T19:10:00.152Z,994.14
2022-12-25T19:15:00.169Z,994.25
2022-12-25T19:20:00.136Z,994.06
2022-12-25T19:25:00.167Z,994.15
2022-12-25T19:30:00.159Z,994
2022-12-25T19:35:00.155Z,993.99
2022-12-25T19:40:00.188Z,993.91
2022-12-25T19:45:00.125Z,993.81
2022-12-25T19:50:02.832Z,993.87
2022-12-25T19:55:00.146Z,993.83
2022-12-25T20:00:00.183Z,993.77
2022-12-25T20:05:00.197Z,993.8
2022-12-25T20:10:00.127Z,993.81
2022-12-25T20:15:00.185Z,993.68
2022-12-25T20:20:00.142Z,993.66
2022-12-25T20:25:00.146Z,993.64
2022-12-25T20:30:00.148Z,993.86
2022-12-25T20:35:00.164Z,993.78
2022-12-25T20:40:00.155Z,993.75
2022-12-25T20:45:00.111Z,993.83
2022-12-25T20:50:00.136Z,993.82
2022-12-25T20:55:00.126Z,993.77
2022-12-25T21:00:00.182Z,993.73
2022-12-25T21:05:00.137Z,993.71
2022-12-25T21:10:00.123Z,993.74
2022-12-25T21:15:00.148Z,993.61
2022-12-25T21:20:00.113Z,993.7
2022-12-25T21:25:00.119Z,993.81
2022-12-25T21:30:00.127Z,994.29
2022-12-25T21:35:00.160Z,994.27
2022-12-25T21:40:00.104Z,994.29
2022-12-25T21:45:00.103Z,994.18
2022-12-25T21:50:00.137Z,994.22
2022-12-25T21:55:00.150Z,994.16
2022-12-25T22:00:00.134Z,994.08
2022-12-25T22:05:00.101Z,994.2
2022-12-25T22:10:00.161Z,994.33
2022-12-25T22:15:00.128Z,994.37
2022-12-25T22:20:00.188Z,994.41
2022-12-25T22:25:00.127Z,994.24
2022-12-25T22:30:00.162Z,994.28
2022-12-25T22:35:00.172Z,994.17
2022-12-25T22:40:00.127Z,994.3
2022-12-25T22:45:00.139Z,994.48
2022-12-25T22:50:00.106Z,994.33
2022-12-25T22:55:00.191Z,994.34
2022-12-25T23:00:00.182Z,994.28
2022-12-25T23:05:00.157Z,994.1
2022-12-25T23:10:00.236Z,994.08
2022-12-25T23:15:00.194Z,994.01
2022-12-25T23:20:00.148Z,993.98
2022-12-25T23:25:00.126Z,994.06
2022-12-25T23:30:00.139Z,994
2022-12-25T23:35:00.158Z,993.99
2022-12-25T23:40:00.143Z,993.97
2022-12-25T23:45:00.144Z,994.17
2022-12-25T23:50:00.161Z,994.18
2022-12-25T23:55:00.214Z,994.06
